sensor_id;sensor_type;location;lat;lon;timestamp;temperature;humidity
29341;DHT22;16337;59.536;13.468;2023-07-31T00:00:27;11.60;99.90
29341;DHT22;16337;59.536;13.468;2023-07-31T00:02:54;11.60;99.90
29341;DHT22;16337;59.536;13.468;2023-07-31T00:05:20;11.70;99.90
29341;DHT22;16337;59.536;13.468;2023-07-31T00:07:46;11.70;99.90
29341;DHT22;16337;59.536;13.468;2023-07-31T00:10:12;11.70;99.90
29341;DHT22;16337;59.536;13.468;2023-07-31T00:12:42;11.70;99.90
29341;DHT22;16337;59.536;13.468;2023-07-31T00:15:09;11.80;99.90
29341;DHT22;16337;59.536;13.468;2023-07-31T00:17:35;11.80;99.90
29341;DHT22;16337;59.536;13.468;2023-07-31T00:20:01;11.80;99.90
29341;DHT22;16337;59.536;13.468;2023-07-31T00:22:27;11.90;99.90
29341;DHT22;16337;59.536;13.468;2023-07-31T00:24:53;11.90;99.90
29341;DHT22;16337;59.536;13.468;2023-07-31T00:27:19;11.90;99.90
29341;DHT22;16337;59.536;13.468;2023-07-31T00:29:44;11.90;99.90
29341;DHT22;16337;59.536;13.468;2023-07-31T00:32:10;11.90;99.90
29341;DHT22;16337;59.536;13.468;2023-07-31T00:34:37;11.90;99.90
29341;DHT22;16337;59.536;13.468;2023-07-31T00:37:03;11.80;99.90
29341;DHT22;16337;59.536;13.468;2023-07-31T00:39:30;11.80;99.90
29341;DHT22;16337;59.536;13.468;2023-07-31T00:41:56;11.80;99.90
29341;DHT22;16337;59.536;13.468;2023-07-31T00:44:22;11.80;99.90
29341;DHT22;16337;59.536;13.468;2023-07-31T00:46:48;11.80;99.90
29341;DHT22;16337;59.536;13.468;2023-07-31T00:49:14;11.80;99.90
29341;DHT22;16337;59.536;13.468;2023-07-31T00:51:40;11.80;99.90
29341;DHT22;16337;59.536;13.468;2023-07-31T00:54:06;11.80;99.90
29341;DHT22;16337;59.536;13.468;2023-07-31T00:56:32;11.90;99.90
29341;DHT22;16337;59.536;13.468;2023-07-31T00:58:58;11.90;99.90
29341;DHT22;16337;59.536;13.468;2023-07-31T01:01:24;11.90;99.90
29341;DHT22;16337;59.536;13.468;2023-07-31T01:03:52;11.80;99.90
29341;DHT22;16337;59.536;13.468;2023-07-31T01:09:07;11.90;99.90
29341;DHT22;16337;59.536;13.468;2023-07-31T01:11:39;11.90;99.90
29341;DHT22;16337;59.536;13.468;2023-07-31T01:14:08;11.90;99.90
29341;DHT22;16337;59.536;13.468;2023-07-31T01:16:34;12.00;99.90
29341;DHT22;16337;59.536;13.468;2023-07-31T01:18:59;12.00;99.90
29341;DHT22;16337;59.536;13.468;2023-07-31T01:21:41;12.00;99.90
29341;DHT22;16337;59.536;13.468;2023-07-31T01:24:29;12.00;99.90
29341;DHT22;16337;59.536;13.468;2023-07-31T01:27:14;12.10;99.90
29341;DHT22;16337;59.536;13.468;2023-07-31T01:32:07;12.10;99.90
29341;DHT22;16337;59.536;13.468;2023-07-31T01:34:35;12.00;99.90
29341;DHT22;16337;59.536;13.468;2023-07-31T01:37:02;12.00;99.90
29341;DHT22;16337;59.536;13.468;2023-07-31T01:39:28;11.90;99.90
29341;DHT22;16337;59.536;13.468;2023-07-31T01:41:54;11.80;99.90
29341;DHT22;16337;59.536;13.468;2023-07-31T01:44:20;11.80;99.90
29341;DHT22;16337;59.536;13.468;2023-07-31T01:46:46;11.70;99.90
29341;DHT22;16337;59.536;13.468;2023-07-31T01:49:11;11.60;99.90
29341;DHT22;16337;59.536;13.468;2023-07-31T01:51:37;11.60;99.90
29341;DHT22;16337;59.536;13.468;2023-07-31T01:54:03;11.50;99.90
29341;DHT22;16337;59.536;13.468;2023-07-31T01:56:29;11.50;99.90
29341;DHT22;16337;59.536;13.468;2023-07-31T01:58:54;11.40;99.90
29341;DHT22;16337;59.536;13.468;2023-07-31T02:01:20;11.40;99.90
29341;DHT22;16337;59.536;13.468;2023-07-31T02:03:46;11.40;99.90
29341;DHT22;16337;59.536;13.468;2023-07-31T02:06:11;11.40;99.90
29341;DHT22;16337;59.536;13.468;2023-07-31T02:08:37;11.40;99.90
29341;DHT22;16337;59.536;13.468;2023-07-31T02:11:03;11.40;99.90
29341;DHT22;16337;59.536;13.468;2023-07-31T02:13:29;11.40;99.90
29341;DHT22;16337;59.536;13.468;2023-07-31T02:15:55;11.40;99.90
29341;DHT22;16337;59.536;13.468;2023-07-31T02:18:20;11.40;99.90
29341;DHT22;16337;59.536;13.468;2023-07-31T02:20:51;11.40;99.90
29341;DHT22;16337;59.536;13.468;2023-07-31T02:23:18;11.40;99.90
29341;DHT22;16337;59.536;13.468;2023-07-31T02:25:44;11.50;99.90
29341;DHT22;16337;59.536;13.468;2023-07-31T02:28:10;11.50;99.90
29341;DHT22;16337;59.536;13.468;2023-07-31T02:30:36;11.50;99.90
29341;DHT22;16337;59.536;13.468;2023-07-31T02:33:02;11.50;99.90
29341;DHT22;16337;59.536;13.468;2023-07-31T02:35:28;11.50;99.90
29341;DHT22;16337;59.536;13.468;2023-07-31T02:37:54;11.60;99.90
29341;DHT22;16337;59.536;13.468;2023-07-31T02:40:19;11.60;99.90
29341;DHT22;16337;59.536;13.468;2023-07-31T02:42:45;11.60;99.90
29341;DHT22;16337;59.536;13.468;2023-07-31T02:45:11;11.60;99.90
29341;DHT22;16337;59.536;13.468;2023-07-31T02:47:36;11.60;99.90
29341;DHT22;16337;59.536;13.468;2023-07-31T02:50:03;11.60;99.90
29341;DHT22;16337;59.536;13.468;2023-07-31T02:52:29;11.60;99.90
29341;DHT22;16337;59.536;13.468;2023-07-31T02:54:55;11.60;99.90
29341;DHT22;16337;59.536;13.468;2023-07-31T02:57:20;11.70;99.90
29341;DHT22;16337;59.536;13.468;2023-07-31T02:59:46;11.70;99.90
29341;DHT22;16337;59.536;13.468;2023-07-31T03:02:12;11.80;99.90
29341;DHT22;16337;59.536;13.468;2023-07-31T03:04:38;11.70;99.90
29341;DHT22;16337;59.536;13.468;2023-07-31T03:07:04;11.80;99.90
29341;DHT22;16337;59.536;13.468;2023-07-31T03:09:30;11.80;99.90
29341;DHT22;16337;59.536;13.468;2023-07-31T03:11:56;11.80;99.90
29341;DHT22;16337;59.536;13.468;2023-07-31T03:14:22;11.80;99.90
29341;DHT22;16337;59.536;13.468;2023-07-31T03:16:48;11.80;99.90
29341;DHT22;16337;59.536;13.468;2023-07-31T03:19:14;11.90;99.90
29341;DHT22;16337;59.536;13.468;2023-07-31T03:21:40;11.90;99.90
29341;DHT22;16337;59.536;13.468;2023-07-31T03:24:05;11.90;99.90
29341;DHT22;16337;59.536;13.468;2023-07-31T03:26:32;12.00;99.90
29341;DHT22;16337;59.536;13.468;2023-07-31T03:28:58;12.00;99.90
29341;DHT22;16337;59.536;13.468;2023-07-31T03:31:24;12.10;99.90
29341;DHT22;16337;59.536;13.468;2023-07-31T03:33:49;12.10;99.90
29341;DHT22;16337;59.536;13.468;2023-07-31T03:36:15;12.20;99.90
29341;DHT22;16337;59.536;13.468;2023-07-31T03:38:41;12.20;99.90
29341;DHT22;16337;59.536;13.468;2023-07-31T03:41:07;12.20;99.90
29341;DHT22;16337;59.536;13.468;2023-07-31T03:43:33;12.20;99.90
29341;DHT22;16337;59.536;13.468;2023-07-31T03:46:01;12.30;99.90
29341;DHT22;16337;59.536;13.468;2023-07-31T03:48:28;12.40;99.90
29341;DHT22;16337;59.536;13.468;2023-07-31T03:50:54;12.40;99.90
29341;DHT22;16337;59.536;13.468;2023-07-31T03:53:20;12.50;99.90
29341;DHT22;16337;59.536;13.468;2023-07-31T03:55:46;12.60;99.90
29341;DHT22;16337;59.536;13.468;2023-07-31T03:58:12;12.70;99.90
29341;DHT22;16337;59.536;13.468;2023-07-31T04:00:39;12.70;99.90
29341;DHT22;16337;59.536;13.468;2023-07-31T04:03:05;12.80;99.90
29341;DHT22;16337;59.536;13.468;2023-07-31T04:05:32;12.90;99.90
29341;DHT22;16337;59.536;13.468;2023-07-31T04:07:58;12.90;99.90
29341;DHT22;16337;59.536;13.468;2023-07-31T04:10:24;13.00;99.90
29341;DHT22;16337;59.536;13.468;2023-07-31T04:12:49;13.10;99.90
29341;DHT22;16337;59.536;13.468;2023-07-31T04:15:15;13.20;99.90
29341;DHT22;16337;59.536;13.468;2023-07-31T04:17:41;13.30;99.90
29341;DHT22;16337;59.536;13.468;2023-07-31T04:20:07;13.30;99.90
29341;DHT22;16337;59.536;13.468;2023-07-31T04:22:33;13.40;99.90
29341;DHT22;16337;59.536;13.468;2023-07-31T04:24:59;13.50;99.90
29341;DHT22;16337;59.536;13.468;2023-07-31T04:27:25;13.60;99.90
29341;DHT22;16337;59.536;13.468;2023-07-31T04:29:50;13.60;99.90
29341;DHT22;16337;59.536;13.468;2023-07-31T04:32:16;13.60;99.90
29341;DHT22;16337;59.536;13.468;2023-07-31T04:34:43;13.60;99.90
29341;DHT22;16337;59.536;13.468;2023-07-31T04:37:08;13.70;99.90
29341;DHT22;16337;59.536;13.468;2023-07-31T04:39:34;13.70;99.90
29341;DHT22;16337;59.536;13.468;2023-07-31T04:42:00;13.70;99.90
29341;DHT22;16337;59.536;13.468;2023-07-31T04:44:26;13.80;99.90
29341;DHT22;16337;59.536;13.468;2023-07-31T04:46:51;13.90;99.90
29341;DHT22;16337;59.536;13.468;2023-07-31T04:49:17;13.90;99.90
29341;DHT22;16337;59.536;13.468;2023-07-31T04:51:43;14.00;99.90
29341;DHT22;16337;59.536;13.468;2023-07-31T04:54:08;14.10;99.90
29341;DHT22;16337;59.536;13.468;2023-07-31T04:56:34;14.20;99.90
29341;DHT22;16337;59.536;13.468;2023-07-31T04:59:00;14.30;99.90
29341;DHT22;16337;59.536;13.468;2023-07-31T05:01:25;14.40;99.90
29341;DHT22;16337;59.536;13.468;2023-07-31T05:03:51;14.50;99.90
29341;DHT22;16337;59.536;13.468;2023-07-31T05:06:17;14.60;99.90
29341;DHT22;16337;59.536;13.468;2023-07-31T05:08:43;14.90;99.90
29341;DHT22;16337;59.536;13.468;2023-07-31T05:11:08;15.00;99.90
29341;DHT22;16337;59.536;13.468;2023-07-31T05:13:34;15.30;99.90
29341;DHT22;16337;59.536;13.468;2023-07-31T05:16:00;15.50;99.90
29341;DHT22;16337;59.536;13.468;2023-07-31T05:18:25;15.70;99.90
29341;DHT22;16337;59.536;13.468;2023-07-31T05:20:51;15.90;99.90
29341;DHT22;16337;59.536;13.468;2023-07-31T05:23:17;16.20;99.90
29341;DHT22;16337;59.536;13.468;2023-07-31T05:25:42;16.40;99.90
29341;DHT22;16337;59.536;13.468;2023-07-31T05:28:08;16.50;99.90
29341;DHT22;16337;59.536;13.468;2023-07-31T05:30:34;16.70;99.90
29341;DHT22;16337;59.536;13.468;2023-07-31T05:32:59;16.80;99.90
29341;DHT22;16337;59.536;13.468;2023-07-31T05:35:25;16.80;99.90
29341;DHT22;16337;59.536;13.468;2023-07-31T05:37:51;16.70;99.90
29341;DHT22;16337;59.536;13.468;2023-07-31T05:40:16;16.50;99.90
29341;DHT22;16337;59.536;13.468;2023-07-31T05:42:42;16.50;99.90
29341;DHT22;16337;59.536;13.468;2023-07-31T05:45:08;16.40;99.90
29341;DHT22;16337;59.536;13.468;2023-07-31T05:47:34;16.40;99.90
29341;DHT22;16337;59.536;13.468;2023-07-31T05:50:00;16.20;99.90
29341;DHT22;16337;59.536;13.468;2023-07-31T05:52:26;16.10;99.90
29341;DHT22;16337;59.536;13.468;2023-07-31T05:54:54;16.10;99.90
29341;DHT22;16337;59.536;13.468;2023-07-31T05:57:20;16.10;99.90
29341;DHT22;16337;59.536;13.468;2023-07-31T05:59:46;16.00;99.90
29341;DHT22;16337;59.536;13.468;2023-07-31T06:02:11;16.00;99.90
29341;DHT22;16337;59.536;13.468;2023-07-31T06:04:37;15.80;99.90
29341;DHT22;16337;59.536;13.468;2023-07-31T06:07:03;15.90;99.90
29341;DHT22;16337;59.536;13.468;2023-07-31T06:09:29;15.90;99.90
29341;DHT22;16337;59.536;13.468;2023-07-31T06:11:54;16.00;99.90
29341;DHT22;16337;59.536;13.468;2023-07-31T06:14:20;16.20;99.90
29341;DHT22;16337;59.536;13.468;2023-07-31T06:16:46;16.30;99.90
29341;DHT22;16337;59.536;13.468;2023-07-31T06:19:12;16.30;99.90
29341;DHT22;16337;59.536;13.468;2023-07-31T06:21:38;16.40;99.90
29341;DHT22;16337;59.536;13.468;2023-07-31T06:24:07;16.40;99.90
29341;DHT22;16337;59.536;13.468;2023-07-31T06:26:33;16.40;99.90
29341;DHT22;16337;59.536;13.468;2023-07-31T06:28:59;16.60;99.90
29341;DHT22;16337;59.536;13.468;2023-07-31T06:31:25;16.90;99.90
29341;DHT22;16337;59.536;13.468;2023-07-31T06:33:53;17.20;99.90
29341;DHT22;16337;59.536;13.468;2023-07-31T06:36:19;17.70;99.90
29341;DHT22;16337;59.536;13.468;2023-07-31T06:38:45;17.90;99.90
29341;DHT22;16337;59.536;13.468;2023-07-31T06:41:10;17.80;99.90
29341;DHT22;16337;59.536;13.468;2023-07-31T06:43:37;17.40;99.90
29341;DHT22;16337;59.536;13.468;2023-07-31T06:46:06;17.20;99.90
29341;DHT22;16337;59.536;13.468;2023-07-31T06:48:33;17.20;99.90
29341;DHT22;16337;59.536;13.468;2023-07-31T06:51:00;17.40;99.90
29341;DHT22;16337;59.536;13.468;2023-07-31T06:53:26;17.40;99.90
29341;DHT22;16337;59.536;13.468;2023-07-31T06:55:51;17.20;99.90
29341;DHT22;16337;59.536;13.468;2023-07-31T06:58:17;17.10;99.90
29341;DHT22;16337;59.536;13.468;2023-07-31T07:00:43;17.00;99.90
29341;DHT22;16337;59.536;13.468;2023-07-31T07:03:09;16.90;99.90
29341;DHT22;16337;59.536;13.468;2023-07-31T07:05:35;16.90;99.90
29341;DHT22;16337;59.536;13.468;2023-07-31T07:08:00;16.90;99.90
29341;DHT22;16337;59.536;13.468;2023-07-31T07:10:26;16.80;99.90
29341;DHT22;16337;59.536;13.468;2023-07-31T07:12:52;16.70;99.90
29341;DHT22;16337;59.536;13.468;2023-07-31T07:15:18;16.60;99.90
29341;DHT22;16337;59.536;13.468;2023-07-31T07:17:44;16.50;99.90
29341;DHT22;16337;59.536;13.468;2023-07-31T07:20:10;16.40;99.90
29341;DHT22;16337;59.536;13.468;2023-07-31T07:22:35;16.30;99.90
29341;DHT22;16337;59.536;13.468;2023-07-31T07:25:02;16.30;99.90
29341;DHT22;16337;59.536;13.468;2023-07-31T07:27:28;16.40;99.90
29341;DHT22;16337;59.536;13.468;2023-07-31T07:29:54;16.50;99.90
29341;DHT22;16337;59.536;13.468;2023-07-31T07:32:20;16.90;99.90
29341;DHT22;16337;59.536;13.468;2023-07-31T07:34:47;17.30;99.90
29341;DHT22;16337;59.536;13.468;2023-07-31T07:37:13;17.80;99.90
29341;DHT22;16337;59.536;13.468;2023-07-31T07:39:39;18.30;99.90
29341;DHT22;16337;59.536;13.468;2023-07-31T07:42:05;18.40;99.90
29341;DHT22;16337;59.536;13.468;2023-07-31T07:44:30;18.60;99.90
29341;DHT22;16337;59.536;13.468;2023-07-31T07:46:56;18.90;99.90
29341;DHT22;16337;59.536;13.468;2023-07-31T07:49:22;19.20;99.90
29341;DHT22;16337;59.536;13.468;2023-07-31T07:51:48;19.30;99.90
29341;DHT22;16337;59.536;13.468;2023-07-31T07:54:14;19.30;99.90
29341;DHT22;16337;59.536;13.468;2023-07-31T07:56:39;19.20;99.90
29341;DHT22;16337;59.536;13.468;2023-07-31T07:59:05;19.10;99.90
29341;DHT22;16337;59.536;13.468;2023-07-31T08:01:31;19.10;99.90
29341;DHT22;16337;59.536;13.468;2023-07-31T08:03:58;18.90;99.90
29341;DHT22;16337;59.536;13.468;2023-07-31T08:06:23;18.80;99.90
29341;DHT22;16337;59.536;13.468;2023-07-31T08:08:49;18.70;99.90
29341;DHT22;16337;59.536;13.468;2023-07-31T08:11:15;18.80;99.90
29341;DHT22;16337;59.536;13.468;2023-07-31T08:13:41;18.90;99.90
29341;DHT22;16337;59.536;13.468;2023-07-31T08:16:07;19.20;99.90
29341;DHT22;16337;59.536;13.468;2023-07-31T08:18:36;19.40;99.90
29341;DHT22;16337;59.536;13.468;2023-07-31T08:21:02;19.50;99.90
29341;DHT22;16337;59.536;13.468;2023-07-31T08:23:28;19.60;99.90
29341;DHT22;16337;59.536;13.468;2023-07-31T08:25:54;19.70;99.90
29341;DHT22;16337;59.536;13.468;2023-07-31T08:28:19;19.90;99.90
29341;DHT22;16337;59.536;13.468;2023-07-31T08:30:45;19.70;99.90
29341;DHT22;16337;59.536;13.468;2023-07-31T08:33:11;19.80;99.90
29341;DHT22;16337;59.536;13.468;2023-07-31T08:35:37;19.80;99.90
29341;DHT22;16337;59.536;13.468;2023-07-31T08:38:02;20.00;99.90
29341;DHT22;16337;59.536;13.468;2023-07-31T08:40:29;20.30;99.90
29341;DHT22;16337;59.536;13.468;2023-07-31T08:42:55;20.40;99.90
29341;DHT22;16337;59.536;13.468;2023-07-31T08:45:27;19.80;99.90
29341;DHT22;16337;59.536;13.468;2023-07-31T08:47:55;19.60;99.90
29341;DHT22;16337;59.536;13.468;2023-07-31T08:50:22;20.00;99.90
29341;DHT22;16337;59.536;13.468;2023-07-31T08:52:49;20.20;99.90
29341;DHT22;16337;59.536;13.468;2023-07-31T08:55:15;20.10;99.90
29341;DHT22;16337;59.536;13.468;2023-07-31T08:57:42;19.90;99.90
29341;DHT22;16337;59.536;13.468;2023-07-31T09:00:09;19.90;99.90
29341;DHT22;16337;59.536;13.468;2023-07-31T09:02:48;20.20;99.90
29341;DHT22;16337;59.536;13.468;2023-07-31T09:05:17;20.20;99.90
29341;DHT22;16337;59.536;13.468;2023-07-31T09:07:47;20.40;99.90
29341;DHT22;16337;59.536;13.468;2023-07-31T09:10:13;20.30;99.90
29341;DHT22;16337;59.536;13.468;2023-07-31T09:12:39;20.10;99.90
29341;DHT22;16337;59.536;13.468;2023-07-31T09:15:05;19.80;99.90
29341;DHT22;16337;59.536;13.468;2023-07-31T09:17:33;19.50;99.90
29341;DHT22;16337;59.536;13.468;2023-07-31T09:20:13;19.40;99.90
29341;DHT22;16337;59.536;13.468;2023-07-31T09:22:39;19.40;99.90
29341;DHT22;16337;59.536;13.468;2023-07-31T09:25:16;19.30;99.90
29341;DHT22;16337;59.536;13.468;2023-07-31T09:27:50;19.30;99.90
29341;DHT22;16337;59.536;13.468;2023-07-31T09:30:17;19.20;99.90
29341;DHT22;16337;59.536;13.468;2023-07-31T09:32:44;19.40;99.90
29341;DHT22;16337;59.536;13.468;2023-07-31T09:37:39;20.00;99.90
29341;DHT22;16337;59.536;13.468;2023-07-31T09:40:05;20.60;99.90
29341;DHT22;16337;59.536;13.468;2023-07-31T09:42:34;21.20;99.90
29341;DHT22;16337;59.536;13.468;2023-07-31T09:45:09;21.50;99.90
29341;DHT22;16337;59.536;13.468;2023-07-31T09:47:35;21.40;99.90
29341;DHT22;16337;59.536;13.468;2023-07-31T09:50:04;21.60;99.90
29341;DHT22;16337;59.536;13.468;2023-07-31T09:52:32;21.80;99.90
29341;DHT22;16337;59.536;13.468;2023-07-31T09:54:58;21.30;99.90
29341;DHT22;16337;59.536;13.468;2023-07-31T09:57:24;21.10;99.90
29341;DHT22;16337;59.536;13.468;2023-07-31T09:59:51;21.20;99.90
29341;DHT22;16337;59.536;13.468;2023-07-31T10:02:22;21.20;99.90
29341;DHT22;16337;59.536;13.468;2023-07-31T10:04:50;21.30;99.90
29341;DHT22;16337;59.536;13.468;2023-07-31T10:07:17;20.90;99.90
29341;DHT22;16337;59.536;13.468;2023-07-31T10:09:44;20.60;99.90
29341;DHT22;16337;59.536;13.468;2023-07-31T10:12:12;20.40;99.90
29341;DHT22;16337;59.536;13.468;2023-07-31T10:14:41;20.30;99.90
29341;DHT22;16337;59.536;13.468;2023-07-31T10:17:07;20.20;99.90
29341;DHT22;16337;59.536;13.468;2023-07-31T10:19:34;20.10;99.90
29341;DHT22;16337;59.536;13.468;2023-07-31T10:22:02;20.00;99.90
29341;DHT22;16337;59.536;13.468;2023-07-31T10:24:29;20.10;99.90
29341;DHT22;16337;59.536;13.468;2023-07-31T10:26:58;20.40;99.90
29341;DHT22;16337;59.536;13.468;2023-07-31T10:29:25;20.60;99.90
29341;DHT22;16337;59.536;13.468;2023-07-31T10:31:52;21.30;99.90
29341;DHT22;16337;59.536;13.468;2023-07-31T10:34:19;21.80;99.90
29341;DHT22;16337;59.536;13.468;2023-07-31T10:36:45;22.00;99.90
29341;DHT22;16337;59.536;13.468;2023-07-31T10:39:34;22.50;99.90
29341;DHT22;16337;59.536;13.468;2023-07-31T10:42:10;22.80;99.90
29341;DHT22;16337;59.536;13.468;2023-07-31T10:44:35;22.00;99.90
29341;DHT22;16337;59.536;13.468;2023-07-31T10:47:01;21.80;99.90
29341;DHT22;16337;59.536;13.468;2023-07-31T10:49:29;21.50;99.90
29341;DHT22;16337;59.536;13.468;2023-07-31T10:51:57;21.20;99.90
29341;DHT22;16337;59.536;13.468;2023-07-31T10:54:23;21.20;99.90
29341;DHT22;16337;59.536;13.468;2023-07-31T10:56:51;20.80;99.90
29341;DHT22;16337;59.536;13.468;2023-07-31T10:59:18;20.60;99.90
29341;DHT22;16337;59.536;13.468;2023-07-31T11:01:52;20.70;99.90
29341;DHT22;16337;59.536;13.468;2023-07-31T11:04:23;20.40;99.90
29341;DHT22;16337;59.536;13.468;2023-07-31T11:07:01;21.30;99.90
29341;DHT22;16337;59.536;13.468;2023-07-31T11:09:31;22.50;99.90
29341;DHT22;16337;59.536;13.468;2023-07-31T11:11:58;23.20;99.90
29341;DHT22;16337;59.536;13.468;2023-07-31T11:14:24;23.80;99.90
29341;DHT22;16337;59.536;13.468;2023-07-31T11:16:50;24.50;99.90
29341;DHT22;16337;59.536;13.468;2023-07-31T11:19:24;25.00;99.90
29341;DHT22;16337;59.536;13.468;2023-07-31T11:21:53;24.60;99.90
29341;DHT22;16337;59.536;13.468;2023-07-31T11:24:19;24.90;99.90
29341;DHT22;16337;59.536;13.468;2023-07-31T11:26:52;25.40;99.90
29341;DHT22;16337;59.536;13.468;2023-07-31T11:29:19;25.50;99.90
29341;DHT22;16337;59.536;13.468;2023-07-31T11:31:46;25.10;99.90
29341;DHT22;16337;59.536;13.468;2023-07-31T11:34:13;24.70;99.90
29341;DHT22;16337;59.536;13.468;2023-07-31T11:36:39;25.30;99.90
29341;DHT22;16337;59.536;13.468;2023-07-31T11:39:13;25.70;99.90
29341;DHT22;16337;59.536;13.468;2023-07-31T11:41:41;25.70;99.90
29341;DHT22;16337;59.536;13.468;2023-07-31T11:44:06;25.40;99.90
29341;DHT22;16337;59.536;13.468;2023-07-31T11:46:32;25.00;99.90
29341;DHT22;16337;59.536;13.468;2023-07-31T11:49:01;25.30;99.90
29341;DHT22;16337;59.536;13.468;2023-07-31T11:51:28;25.00;99.90
29341;DHT22;16337;59.536;13.468;2023-07-31T11:53:57;25.20;99.90
29341;DHT22;16337;59.536;13.468;2023-07-31T11:56:24;25.30;99.90
29341;DHT22;16337;59.536;13.468;2023-07-31T11:58:55;25.00;99.90
29341;DHT22;16337;59.536;13.468;2023-07-31T12:01:22;25.60;99.90
29341;DHT22;16337;59.536;13.468;2023-07-31T12:03:50;25.60;99.90
29341;DHT22;16337;59.536;13.468;2023-07-31T12:06:16;25.40;99.90
29341;DHT22;16337;59.536;13.468;2023-07-31T12:08:42;25.80;99.90
29341;DHT22;16337;59.536;13.468;2023-07-31T12:11:10;26.20;99.90
29341;DHT22;16337;59.536;13.468;2023-07-31T12:13:36;26.20;99.90
29341;DHT22;16337;59.536;13.468;2023-07-31T12:16:03;26.10;99.90
29341;DHT22;16337;59.536;13.468;2023-07-31T12:18:34;26.00;99.90
29341;DHT22;16337;59.536;13.468;2023-07-31T12:21:02;26.30;99.90
29341;DHT22;16337;59.536;13.468;2023-07-31T12:23:31;26.60;99.90
29341;DHT22;16337;59.536;13.468;2023-07-31T12:26:20;26.60;99.90
29341;DHT22;16337;59.536;13.468;2023-07-31T12:28:48;26.90;99.90
29341;DHT22;16337;59.536;13.468;2023-07-31T12:31:19;26.10;99.50
29341;DHT22;16337;59.536;13.468;2023-07-31T12:33:47;25.60;99.90
29341;DHT22;16337;59.536;13.468;2023-07-31T12:36:14;24.40;99.90
29341;DHT22;16337;59.536;13.468;2023-07-31T12:38:41;23.70;99.90
29341;DHT22;16337;59.536;13.468;2023-07-31T12:41:07;23.10;99.90
29341;DHT22;16337;59.536;13.468;2023-07-31T12:43:37;23.00;99.90
29341;DHT22;16337;59.536;13.468;2023-07-31T12:46:03;22.40;99.90
29341;DHT22;16337;59.536;13.468;2023-07-31T12:48:30;22.20;99.90
29341;DHT22;16337;59.536;13.468;2023-07-31T12:50:55;22.50;99.90
29341;DHT22;16337;59.536;13.468;2023-07-31T12:53:21;22.60;99.90
29341;DHT22;16337;59.536;13.468;2023-07-31T12:55:47;22.50;99.90
29341;DHT22;16337;59.536;13.468;2023-07-31T12:58:13;22.90;99.90
29341;DHT22;16337;59.536;13.468;2023-07-31T13:00:39;23.40;99.90
29341;DHT22;16337;59.536;13.468;2023-07-31T13:03:04;24.10;99.90
29341;DHT22;16337;59.536;13.468;2023-07-31T13:05:30;24.10;99.90
29341;DHT22;16337;59.536;13.468;2023-07-31T13:07:56;23.50;99.90
29341;DHT22;16337;59.536;13.468;2023-07-31T13:10:23;23.30;99.90
29341;DHT22;16337;59.536;13.468;2023-07-31T13:12:49;22.90;99.90
29341;DHT22;16337;59.536;13.468;2023-07-31T13:15:15;22.50;99.90
29341;DHT22;16337;59.536;13.468;2023-07-31T13:17:42;22.40;99.90
29341;DHT22;16337;59.536;13.468;2023-07-31T13:20:08;22.20;99.90
29341;DHT22;16337;59.536;13.468;2023-07-31T13:22:33;21.90;99.90
29341;DHT22;16337;59.536;13.468;2023-07-31T13:24:59;22.00;99.90
29341;DHT22;16337;59.536;13.468;2023-07-31T13:27:25;22.10;99.90
29341;DHT22;16337;59.536;13.468;2023-07-31T13:29:52;22.20;99.90
29341;DHT22;16337;59.536;13.468;2023-07-31T13:32:18;22.10;99.90
29341;DHT22;16337;59.536;13.468;2023-07-31T13:34:44;22.00;99.90
29341;DHT22;16337;59.536;13.468;2023-07-31T13:37:10;21.90;99.90
29341;DHT22;16337;59.536;13.468;2023-07-31T13:39:35;21.90;99.90
29341;DHT22;16337;59.536;13.468;2023-07-31T13:42:05;22.30;99.90
29341;DHT22;16337;59.536;13.468;2023-07-31T13:44:35;23.00;99.90
29341;DHT22;16337;59.536;13.468;2023-07-31T13:47:01;23.50;99.90
29341;DHT22;16337;59.536;13.468;2023-07-31T13:49:27;23.80;99.90
29341;DHT22;16337;59.536;13.468;2023-07-31T13:51:52;23.50;99.90
29341;DHT22;16337;59.536;13.468;2023-07-31T13:54:18;23.30;99.90
29341;DHT22;16337;59.536;13.468;2023-07-31T13:56:44;22.70;99.90
29341;DHT22;16337;59.536;13.468;2023-07-31T13:59:11;22.50;99.90
29341;DHT22;16337;59.536;13.468;2023-07-31T14:01:37;22.50;99.90
29341;DHT22;16337;59.536;13.468;2023-07-31T14:04:03;22.90;99.90
29341;DHT22;16337;59.536;13.468;2023-07-31T14:06:29;23.10;99.90
29341;DHT22;16337;59.536;13.468;2023-07-31T14:08:55;23.50;99.90
29341;DHT22;16337;59.536;13.468;2023-07-31T14:11:24;23.60;99.90
29341;DHT22;16337;59.536;13.468;2023-07-31T14:13:50;23.60;99.90
29341;DHT22;16337;59.536;13.468;2023-07-31T14:16:16;23.50;99.90
29341;DHT22;16337;59.536;13.468;2023-07-31T14:18:42;23.50;99.90
29341;DHT22;16337;59.536;13.468;2023-07-31T14:21:08;23.50;99.90
29341;DHT22;16337;59.536;13.468;2023-07-31T14:23:34;23.60;99.90
29341;DHT22;16337;59.536;13.468;2023-07-31T14:26:00;23.90;99.90
29341;DHT22;16337;59.536;13.468;2023-07-31T14:28:26;24.20;99.90
29341;DHT22;16337;59.536;13.468;2023-07-31T14:30:52;24.70;99.90
29341;DHT22;16337;59.536;13.468;2023-07-31T14:33:17;24.90;99.90
29341;DHT22;16337;59.536;13.468;2023-07-31T14:35:43;25.30;99.90
29341;DHT22;16337;59.536;13.468;2023-07-31T14:38:09;25.40;99.90
29341;DHT22;16337;59.536;13.468;2023-07-31T14:40:35;25.60;99.90
29341;DHT22;16337;59.536;13.468;2023-07-31T14:43:01;25.50;99.90
29341;DHT22;16337;59.536;13.468;2023-07-31T14:45:27;25.30;99.90
29341;DHT22;16337;59.536;13.468;2023-07-31T14:47:53;24.60;99.00
29341;DHT22;16337;59.536;13.468;2023-07-31T14:50:20;24.10;99.90
29341;DHT22;16337;59.536;13.468;2023-07-31T14:52:47;23.60;99.90
29341;DHT22;16337;59.536;13.468;2023-07-31T14:55:13;23.50;99.90
29341;DHT22;16337;59.536;13.468;2023-07-31T14:57:39;23.40;99.90
29341;DHT22;16337;59.536;13.468;2023-07-31T15:00:05;23.80;99.90
29341;DHT22;16337;59.536;13.468;2023-07-31T15:02:34;24.30;99.90
29341;DHT22;16337;59.536;13.468;2023-07-31T15:05:01;24.50;99.60
29341;DHT22;16337;59.536;13.468;2023-07-31T15:07:26;24.40;99.00
29341;DHT22;16337;59.536;13.468;2023-07-31T15:09:52;24.30;99.40
29341;DHT22;16337;59.536;13.468;2023-07-31T15:12:18;24.60;99.90
29341;DHT22;16337;59.536;13.468;2023-07-31T15:14:44;24.90;99.90
29341;DHT22;16337;59.536;13.468;2023-07-31T15:17:09;25.50;99.70
29341;DHT22;16337;59.536;13.468;2023-07-31T15:19:35;25.50;98.20